createdAt,value
2023-01-21T00:01:37.199Z,102504.94
2023-01-21T00:03:39.515Z,102505.97
2023-01-21T00:05:41.851Z,102502.53
2023-01-21T00:07:43.993Z,102509.31
2023-01-21T00:09:46.054Z,102510.28
2023-01-21T00:11:48.145Z,102511.06
2023-01-21T00:13:50.508Z,102518.50
2023-01-21T00:15:55.444Z,102520.41
2023-01-21T00:17:57.824Z,102527.72
2023-01-21T00:19:59.895Z,102530.16
2023-01-21T00:22:02.057Z,102532.03
2023-01-21T00:24:04.452Z,102530.84
2023-01-21T00:26:08.722Z,102539.50
2023-01-21T00:28:10.898Z,102539.28
2023-01-21T00:30:13.995Z,102532.53
2023-01-21T00:32:16.135Z,102526.63
2023-01-21T00:34:18.426Z,102536.06
2023-01-21T00:36:24.955Z,102536.94
2023-01-21T00:38:27.070Z,102540.81
2023-01-21T00:40:29.213Z,102542.63
2023-01-21T00:42:31.398Z,102542.50
2023-01-21T00:44:33.530Z,102545.53
2023-01-21T00:46:35.677Z,102543.97
2023-01-21T00:48:37.873Z,102551.50
2023-01-21T00:50:39.954Z,102554.38
2023-01-21T00:52:41.972Z,102550.53
2023-01-21T00:54:44.696Z,102562.41
2023-01-21T00:56:46.734Z,102560.72
2023-01-21T00:58:48.977Z,102564.06
2023-01-21T01:00:51.107Z,102564.94
2023-01-21T01:02:53.254Z,102568.16
2023-01-21T01:04:55.454Z,102577.59
2023-01-21T01:06:57.672Z,102577.59
2023-01-21T01:08:59.759Z,102574.72
2023-01-21T01:11:02.083Z,102576.69
2023-01-21T01:13:04.153Z,102586.69
2023-01-21T01:15:07.059Z,102580.03
2023-01-21T01:17:09.364Z,102588.25
2023-01-21T01:19:12.520Z,102586.69
2023-01-21T01:21:17.100Z,102587.56
2023-01-21T01:23:19.647Z,102588.34
2023-01-21T01:25:21.754Z,102583.34
2023-01-21T01:27:23.985Z,102586.69
2023-01-21T01:29:26.081Z,102593.81
2023-01-21T01:31:28.126Z,102596.56
2023-01-21T01:33:30.897Z,102600.59
2023-01-21T01:35:33.475Z,102606.78
2023-01-21T01:37:35.512Z,102606.56
2023-01-21T01:39:37.814Z,102602.22
2023-01-21T01:41:39.898Z,102596.03
2023-01-21T01:43:48.495Z,102605.69
2023-01-21T01:45:51.326Z,102612.44
2023-01-21T01:48:00.091Z,102611.69
2023-01-21T01:50:03.466Z,102607.31
2023-01-21T01:52:08.225Z,102612.13
2023-01-21T01:54:12.329Z,102616.13
2023-01-21T01:56:15.905Z,102617.13
2023-01-21T01:58:21.103Z,102625.34
2023-01-21T02:00:25.404Z,102628.00
2023-01-21T02:02:27.519Z,102623.88
2023-01-21T02:04:33.882Z,102622.44
2023-01-21T02:06:36.535Z,102620.66
2023-01-21T02:08:39.468Z,102628.31
2023-01-21T02:10:41.563Z,102627.53
2023-01-21T02:12:44.755Z,102640.88
2023-01-21T02:14:48.356Z,102638.19
2023-01-21T02:17:00.178Z,102644.31
2023-01-21T02:19:30.892Z,102647.28
2023-01-21T02:21:36.442Z,102640.28
2023-01-21T02:23:42.051Z,102651.84
2023-01-21T02:25:48.628Z,102649.41
2023-01-21T02:27:55.099Z,102652.16
2023-01-21T02:30:00.587Z,102654.81
2023-01-21T02:32:09.057Z,102646.28
2023-01-21T02:34:20.871Z,102650.50
2023-01-21T02:36:33.933Z,102655.50
2023-01-21T02:38:42.095Z,102663.47
2023-01-21T02:40:48.666Z,102666.16
2023-01-21T02:42:58.819Z,102672.28
2023-01-21T02:45:01.574Z,102673.38
2023-01-21T02:47:07.635Z,102673.84
2023-01-21T02:49:24.991Z,102668.72
2023-01-21T02:51:27.177Z,102674.81
2023-01-21T02:53:33.913Z,102679.69
2023-01-21T02:55:38.413Z,102675.59
2023-01-21T02:57:43.480Z,102676.91
2023-01-21T02:59:49.808Z,102679.34
2023-01-21T03:02:01.600Z,102682.56
2023-01-21T03:04:07.189Z,102686.78
2023-01-21T03:06:12.805Z,102685.13
2023-01-21T03:08:20.181Z,102682.09
2023-01-21T03:10:43.846Z,102694.09
2023-01-21T03:12:52.504Z,102694.34
2023-01-21T03:15:04.024Z,102692.53
2023-01-21T03:17:18.697Z,102696.53
2023-01-21T03:19:24.123Z,102698.88
2023-01-21T03:21:30.594Z,102703.09
2023-01-21T03:23:39.024Z,102701.84
2023-01-21T03:25:41.980Z,102712.03
2023-01-21T03:27:47.086Z,102712.91
2023-01-21T03:29:52.675Z,102712.91
2023-01-21T03:32:00.542Z,102713.66
2023-01-21T03:34:06.109Z,102720.78
2023-01-21T03:36:18.696Z,102718.66
2023-01-21T03:38:26.873Z,102723.28
2023-01-21T03:40:35.488Z,102720.63
2023-01-21T03:42:37.701Z,102723.84
2023-01-21T03:44:40.092Z,102728.53
2023-01-21T03:47:06.427Z,102722.41
2023-01-21T03:49:14.943Z,102725.22
2023-01-21T03:51:23.052Z,102726.50
2023-01-21T03:53:25.524Z,102731.72
2023-01-21T03:55:27.691Z,102733.38
2023-01-21T03:57:29.727Z,102737.69
2023-01-21T03:59:31.736Z,102737.25
2023-01-21T04:01:33.745Z,102739.69
2023-01-21T04:03:35.801Z,102743.75
2023-01-21T04:05:37.814Z,102742.91
2023-01-21T04:07:39.986Z,102747.72
2023-01-21T04:09:42.269Z,102752.06
2023-01-21T04:11:44.290Z,102744.94
2023-01-21T04:13:46.283Z,102748.59
2023-01-21T04:15:48.426Z,102752.47
2023-01-21T04:17:50.424Z,102752.31
2023-01-21T04:19:52.501Z,102757.09
2023-01-21T04:21:54.535Z,102754.88
2023-01-21T04:23:56.606Z,102763.31
2023-01-21T04:25:58.715Z,102762.97
2023-01-21T04:28:00.786Z,102767.94
2023-01-21T04:30:02.907Z,102761.69
2023-01-21T04:32:05.270Z,102770.50
2023-01-21T04:34:07.263Z,102771.00
2023-01-21T04:36:09.414Z,102772.78
2023-01-21T04:38:11.777Z,102778.13
2023-01-21T04:40:14.453Z,102769.50
2023-01-21T04:42:16.616Z,102778.81
2023-01-21T04:44:18.720Z,102778.41
2023-01-21T04:46:20.783Z,102775.66
2023-01-21T04:48:42.618Z,102778.97
2023-01-21T04:50:44.658Z,102777.31
2023-01-21T04:52:46.751Z,102785.06
2023-01-21T04:54:48.765Z,102786.19
2023-01-21T04:56:50.770Z,102783.41
2023-01-21T04:58:52.762Z,102784.84
2023-01-21T05:00:55.564Z,102785.84
2023-01-21T05:02:57.686Z,102791.81
2023-01-21T05:04:59.801Z,102796.16
2023-01-21T05:07:01.903Z,102800.91
2023-01-21T05:09:04.006Z,102802.53
2023-01-21T05:11:09.145Z,102799.75
2023-01-21T05:13:11.216Z,102804.97
2023-01-21T05:15:13.324Z,102800.78
2023-01-21T05:17:15.387Z,102804.22
2023-01-21T05:19:17.407Z,102809.31
2023-01-21T05:21:19.469Z,102805.44
2023-01-21T05:23:21.436Z,102814.19
2023-01-21T05:25:23.544Z,102810.41
2023-01-21T05:27:25.567Z,102812.94
2023-01-21T05:29:27.621Z,102816.38
2023-01-21T05:31:29.630Z,102828.13
2023-01-21T05:33:33.709Z,102830.41
2023-01-21T05:35:35.970Z,102834.50
2023-01-21T05:37:38.369Z,102836.03
2023-01-21T05:39:40.551Z,102831.84
2023-01-21T05:41:42.558Z,102838.38
2023-01-21T05:43:44.738Z,102847.78
2023-01-21T05:45:47.005Z,102844.34
2023-01-21T05:47:49.130Z,102838.47
2023-01-21T05:49:51.191Z,102846.91
2023-01-21T05:51:53.406Z,102837.97
2023-01-21T05:53:55.741Z,102845.50
2023-01-21T05:55:58.403Z,102851.47
2023-01-21T05:58:00.455Z,102854.78
2023-01-21T06:00:02.590Z,102854.41
2023-01-21T06:02:04.771Z,102857.34
2023-01-21T06:04:06.868Z,102853.38
2023-01-21T06:06:09.020Z,102863.97
2023-01-21T06:08:12.219Z,102857.72
2023-01-21T06:10:14.439Z,102856.47
2023-01-21T06:12:16.774Z,102863.09
2023-01-21T06:14:18.924Z,102869.06
2023-01-21T06:16:20.931Z,102877.31
2023-01-21T06:18:24.108Z,102879.13
2023-01-21T06:20:26.223Z,102886.78
2023-01-21T06:22:28.208Z,102885.47
2023-01-21T06:24:30.293Z,102891.59
2023-01-21T06:26:34.235Z,102892.47
2023-01-21T06:28:36.350Z,102893.00
2023-01-21T06:30:38.501Z,102895.31
2023-01-21T06:32:40.590Z,102903.31
2023-01-21T06:34:44.099Z,102909.81
2023-01-21T06:36:47.213Z,102913.91
2023-01-21T06:38:49.440Z,102913.63
2023-01-21T06:40:51.440Z,102922.03
2023-01-21T06:42:54.483Z,102920.25
2023-01-21T06:44:56.566Z,102921.25
2023-01-21T06:47:00.962Z,102928.25
2023-01-21T06:49:03.424Z,102929.53
2023-01-21T06:51:05.891Z,102938.06
2023-01-21T06:53:07.970Z,102939.72
2023-01-21T06:55:10.920Z,102938.97
2023-01-21T06:57:13.225Z,102934.75
2023-01-21T06:59:15.225Z,102935.88
2023-01-21T07:01:17.386Z,102933.75
2023-01-21T07:03:19.365Z,102937.06
2023-01-21T07:05:21.323Z,102937.06
2023-01-21T07:07:23.412Z,102942.16
2023-01-21T07:09:25.471Z,102954.13
2023-01-21T07:11:27.613Z,102954.00
2023-01-21T07:13:29.695Z,102946.47
2023-01-21T07:15:31.769Z,102946.84
2023-01-21T07:17:33.822Z,102954.66
2023-01-21T07:19:35.858Z,102948.25
2023-01-21T07:21:37.992Z,102956.28
2023-01-21T07:23:40.047Z,102961.75
2023-01-21T07:25:42.398Z,102960.75
2023-01-21T07:27:44.449Z,102956.28
2023-01-21T07:29:46.556Z,102963.31
2023-01-21T07:31:48.648Z,102967.50
2023-01-21T07:33:50.769Z,102966.63
2023-01-21T07:35:52.823Z,102963.03
2023-01-21T07:37:54.911Z,102969.16
2023-01-21T07:39:57.010Z,102969.28
2023-01-21T07:41:59.043Z,102970.81
2023-01-21T07:44:01.189Z,102971.94
2023-01-21T07:46:03.308Z,102974.63
2023-01-21T07:48:05.892Z,102979.72
2023-01-21T07:50:09.091Z,102985.69
2023-01-21T07:52:11.286Z,102987.22
2023-01-21T07:54:14.548Z,103001.75
2023-01-21T07:56:18.233Z,102997.66
2023-01-21T07:58:20.374Z,103004.28
2023-01-21T08:00:23.043Z,102991.31
2023-01-21T08:02:25.465Z,103000.97
2023-01-21T08:04:27.594Z,103002.75
2023-01-21T08:06:29.624Z,103008.50
2023-01-21T08:08:32.478Z,103006.06
2023-01-21T08:10:34.520Z,103013.72
2023-01-21T08:12:36.572Z,103017.03
2023-01-21T08:14:39.566Z,103023.00
2023-01-21T08:16:41.588Z,103020.34
2023-01-21T08:18:43.602Z,103019.78
2023-01-21T08:20:45.868Z,103021.34
2023-01-21T08:22:48.162Z,103029.09
2023-01-21T08:24:50.190Z,103033.59
2023-01-21T08:26:52.302Z,103027.56
2023-01-21T08:28:55.238Z,103027.22
2023-01-21T08:31:04.369Z,103029.75
2023-01-21T08:33:06.622Z,103034.97
2023-01-21T08:35:09.674Z,103035.88
2023-01-21T08:37:11.682Z,103040.31
2023-01-21T08:39:16.136Z,103040.19
2023-01-21T08:41:18.267Z,103039.16
2023-01-21T08:43:20.299Z,103040.47
2023-01-21T08:45:22.488Z,103043.03
2023-01-21T08:47:24.847Z,103046.72
2023-01-21T08:49:27.094Z,103047.47
2023-01-21T08:51:29.293Z,103050.16
2023-01-21T08:53:32.476Z,103051.44
2023-01-21T08:55:34.634Z,103054.00
2023-01-21T08:57:36.966Z,103050.16
2023-01-21T08:59:39.253Z,103056.13
2023-01-21T09:01:41.477Z,103055.63
2023-01-21T09:03:43.829Z,103052.34
2023-01-21T09:05:47.227Z,103060.72
2023-01-21T09:07:49.393Z,103057.28
2023-01-21T09:09:51.692Z,103070.00
2023-01-21T09:11:53.939Z,103065.31
2023-01-21T09:13:59.311Z,103064.78
2023-01-21T09:16:01.985Z,103068.09
2023-01-21T09:18:04.382Z,103080.06
2023-01-21T09:20:07.168Z,103072.97
2023-01-21T09:22:09.738Z,103083.28
2023-01-21T09:24:12.027Z,103079.97
2023-01-21T09:26:18.462Z,103086.97
2023-01-21T09:28:22.741Z,103088.00
2023-01-21T09:30:24.909Z,103092.81
2023-01-21T09:32:27.105Z,103091.69
2023-01-21T09:34:29.523Z,103099.09
2023-01-21T09:36:35.035Z,103101.78
2023-01-21T09:38:37.474Z,103104.06
2023-01-21T09:40:45.300Z,103107.50
2023-01-21T09:42:47.552Z,103114.53
2023-01-21T09:44:53.165Z,103112.00
2023-01-21T09:46:56.248Z,103114.91
2023-01-21T09:48:59.811Z,103117.72
2023-01-21T09:51:12.657Z,103121.31
2023-01-21T09:53:22.132Z,103123.59
2023-01-21T09:55:32.981Z,103120.66
2023-01-21T09:57:36.383Z,103118.50
2023-01-21T09:59:41.963Z,103125.88
2023-01-21T10:01:44.834Z,103131.66
2023-01-21T10:03:55.322Z,103129.13
2023-01-21T10:06:08.635Z,103125.28
2023-01-21T10:08:18.432Z,103132.69
2023-01-21T10:10:31.663Z,103133.16
2023-01-21T10:12:35.591Z,103138.16
2023-01-21T10:14:41.323Z,103135.59
2023-01-21T10:16:49.844Z,103130.75
2023-01-21T10:18:54.936Z,103136.22
2023-01-21T10:21:05.263Z,103135.84
2023-01-21T10:23:17.325Z,103138.22
2023-01-21T10:25:26.656Z,103145.88
2023-01-21T10:27:35.558Z,103138.75
2023-01-21T10:29:42.132Z,103142.56
2023-01-21T10:31:55.013Z,103141.94
2023-01-21T10:33:57.231Z,103144.47
2023-01-21T10:36:01.225Z,103149.81
2023-01-21T10:38:12.615Z,103145.97
2023-01-21T10:40:40.828Z,103148.50
2023-01-21T10:42:46.479Z,103149.09
2023-01-21T10:44:53.725Z,103148.59
2023-01-21T10:47:02.175Z,103148.31
2023-01-21T10:49:15.884Z,103147.91
2023-01-21T10:51:25.570Z,103153.63
2023-01-21T10:53:31.137Z,103147.31
2023-01-21T10:55:39.423Z,103151.59
2023-01-21T10:57:45.087Z,103146.34
2023-01-21T10:59:48.863Z,103147.94
2023-01-21T11:01:59.354Z,103142.28
2023-01-21T11:04:10.595Z,103142.88
2023-01-21T11:06:17.177Z,103144.47
2023-01-21T11:08:26.424Z,103140.38
2023-01-21T11:10:29.008Z,103143.41
2023-01-21T11:12:33.015Z,103148.06
2023-01-21T11:14:35.394Z,103147.78
2023-01-21T11:16:43.713Z,103139.69
2023-01-21T11:18:46.034Z,103133.91
2023-01-21T11:20:49.892Z,103142.47
2023-01-21T11:22:52.945Z,103141.28
2023-01-21T11:24:58.497Z,103127.47
2023-01-21T11:27:02.407Z,103135.16
2023-01-21T11:29:08.193Z,103133.94
2023-01-21T11:31:23.873Z,103134.41
2023-01-21T11:33:29.594Z,103129.63
2023-01-21T11:35:32.086Z,103125.97
2023-01-21T11:37:36.563Z,103131.97
2023-01-21T11:39:52.370Z,103134.63
2023-01-21T11:41:59.225Z,103132.56
2023-01-21T11:44:08.551Z,103130.91
2023-01-21T11:46:21.931Z,103127.88
2023-01-21T11:48:24.468Z,103129.91
2023-01-21T11:50:31.724Z,103121.66
2023-01-21T11:52:34.001Z,103124.09
2023-01-21T11:54:40.968Z,103129.00
2023-01-21T11:56:55.749Z,103116.53
2023-01-21T11:58:58.096Z,103124.31
2023-01-21T12:01:03.945Z,103123.97
2023-01-21T12:03:07.424Z,103122.97
2023-01-21T12:05:16.244Z,103120.50
2023-01-21T12:07:22.682Z,103115.72
2023-01-21T12:09:25.879Z,103121.84
2023-01-21T12:11:30.094Z,103115.56
2023-01-21T12:13:35.831Z,103124.38
2023-01-21T12:15:49.274Z,103116.66
2023-01-21T12:18:03.465Z,103106.94
2023-01-21T12:20:11.914Z,103112.19
2023-01-21T12:22:17.793Z,103105.38
2023-01-21T12:24:24.706Z,103106.81
2023-01-21T12:26:33.243Z,103107.00
2023-01-21T12:28:41.789Z,103108.19
2023-01-21T12:30:53.083Z,103105.06
2023-01-21T12:33:02.349Z,103105.16
2023-01-21T12:35:10.631Z,103101.03
2023-01-21T12:37:18.787Z,103100.78
2023-01-21T12:39:27.773Z,103099.38
2023-01-21T12:41:32.657Z,103094.00
2023-01-21T12:43:41.364Z,103096.38
2023-01-21T12:45:52.363Z,103091.59
2023-01-21T12:48:03.916Z,103093.78
2023-01-21T12:50:24.326Z,103089.47
2023-01-21T12:52:42.663Z,103093.38
2023-01-21T12:54:53.874Z,103086.56
2023-01-21T12:57:06.099Z,103084.78
2023-01-21T12:59:09.192Z,103082.81
2023-01-21T13:01:16.583Z,103079.56
2023-01-21T13:03:29.324Z,103083.72
2023-01-21T13:05:35.267Z,103083.53
2023-01-21T13:07:40.647Z,103088.56
2023-01-21T13:09:49.525Z,103090.53
2023-01-21T13:11:57.950Z,103079.56
2023-01-21T13:14:23.947Z,103082.84
2023-01-21T13:16:27.380Z,103084.16
2023-01-21T13:18:34.848Z,103085.22
2023-01-21T13:20:42.567Z,103085.16
2023-01-21T13:22:52.127Z,103092.44
2023-01-21T13:25:02.688Z,103092.44
2023-01-21T13:27:11.233Z,103086.81
2023-01-21T13:29:19.613Z,103087.19
2023-01-21T13:31:30.689Z,103084.22
2023-01-21T13:33:36.563Z,103087.09
2023-01-21T13:35:41.967Z,103087.25
2023-01-21T13:37:50.978Z,103079.81
2023-01-21T13:40:15.913Z,103075.16
2023-01-21T13:42:19.119Z,103073.97
2023-01-21T13:44:25.029Z,103079.00
2023-01-21T13:46:38.130Z,103076.84
2023-01-21T13:48:45.178Z,103066.56
2023-01-21T13:50:55.145Z,103071.69
2023-01-21T13:53:07.564Z,103071.75
2023-01-21T13:55:22.948Z,103072.66
2023-01-21T13:57:31.898Z,103080.00
2023-01-21T13:59:38.678Z,103081.22
2023-01-21T14:01:49.919Z,103081.78
2023-01-21T14:03:54.043Z,103082.00
2023-01-21T14:06:03.715Z,103088.03
2023-01-21T14:08:13.011Z,103080.78
2023-01-21T14:10:19.161Z,103087.72
2023-01-21T14:12:43.895Z,103090.88
2023-01-21T14:14:49.531Z,103085.34
2023-01-21T14:16:55.629Z,103091.34
2023-01-21T14:19:04.263Z,103097.00
2023-01-21T14:21:07.874Z,103094.41
2023-01-21T14:23:12.743Z,103093.75
2023-01-21T14:25:21.108Z,103099.50
2023-01-21T14:27:32.588Z,103093.03
2023-01-21T14:29:46.371Z,103099.81
2023-01-21T14:32:00.641Z,103101.59
2023-01-21T14:34:14.791Z,103098.44
2023-01-21T14:36:22.607Z,103104.63
2023-01-21T14:38:29.303Z,103092.50
2023-01-21T14:40:35.800Z,103103.03
2023-01-21T14:42:43.626Z,103100.63
2023-01-21T14:44:49.272Z,103104.94
2023-01-21T14:47:14.910Z,103100.50
2023-01-21T14:49:42.417Z,103102.50
2023-01-21T14:51:49.677Z,103102.19
2023-01-21T14:53:57.571Z,103097.84
2023-01-21T14:56:07.757Z,103105.28
2023-01-21T14:58:23.255Z,103100.50
2023-01-21T15:00:30.482Z,103105.53
2023-01-21T15:02:42.147Z,103107.88
2023-01-21T15:04:55.065Z,103105.53
2023-01-21T15:07:02.956Z,103111.97
2023-01-21T15:09:06.583Z,103109.91
2023-01-21T15:11:17.141Z,103116.41
2023-01-21T15:13:33.345Z,103119.38
2023-01-21T15:15:41.207Z,103111.50
2023-01-21T15:17:47.559Z,103116.97
2023-01-21T15:20:01.555Z,103117.41
2023-01-21T15:22:18.325Z,103124.44
2023-01-21T15:24:28.422Z,103125.50
2023-01-21T15:26:32.664Z,103132.22
2023-01-21T15:28:40.658Z,103126.88
2023-01-21T15:30:54.229Z,103136.88
2023-01-21T15:33:01.901Z,103140.00
2023-01-21T15:35:10.619Z,103143.69
2023-01-21T15:37:20.211Z,103132.44
2023-01-21T15:39:32.257Z,103141.56
2023-01-21T15:41:38.029Z,103150.47
2023-01-21T15:43:51.389Z,103149.38
2023-01-21T15:46:07.338Z,103147.59
2023-01-21T15:48:30.176Z,103152.03
2023-01-21T15:50:42.434Z,103152.94
2023-01-21T15:52:48.599Z,103158.75
2023-01-21T15:54:55.551Z,103154.72
2023-01-21T15:57:10.037Z,103158.06
2023-01-21T15:59:24.116Z,103154.94
2023-01-21T16:01:35.435Z,103156.41
2023-01-21T16:03:44.544Z,103160.72
2023-01-21T16:05:54.806Z,103154.03
2023-01-21T16:08:07.401Z,103151.47
2023-01-21T16:10:16.232Z,103157.63
2023-01-21T16:12:23.355Z,103157.06
2023-01-21T16:14:32.531Z,103168.22
2023-01-21T16:16:38.000Z,103165.88
2023-01-21T16:18:46.691Z,103162.75
2023-01-21T16:20:53.743Z,103164.41
2023-01-21T16:22:59.934Z,103182.44
2023-01-21T16:25:08.243Z,103184.78
2023-01-21T16:27:16.731Z,103183.22
2023-01-21T16:29:19.042Z,103185.25
2023-01-21T16:31:22.554Z,103191.28
2023-01-21T16:33:25.332Z,103185.91
2023-01-21T16:35:41.022Z,103184.56
2023-01-21T16:37:44.592Z,103179.66
2023-01-21T16:39:47.334Z,103185.00
2023-01-21T16:42:01.805Z,103191.25
2023-01-21T16:44:06.116Z,103193.03
2023-01-21T16:46:14.214Z,103202.16
2023-01-21T16:48:23.154Z,103201.50
2023-01-21T16:50:28.187Z,103197.91
2023-01-21T16:52:31.603Z,103202.16
2023-01-21T16:54:34.419Z,103207.94
2023-01-21T16:56:46.904Z,103208.09
2023-01-21T16:58:49.067Z,103216.78
2023-01-21T17:00:57.811Z,103212.84
2023-01-21T17:03:01.213Z,103218.56
2023-01-21T17:05:06.141Z,103225.34
2023-01-21T17:07:16.812Z,103223.81
2023-01-21T17:09:24.623Z,103226.03
2023-01-21T17:11:28.044Z,103228.38
2023-01-21T17:13:31.749Z,103223.13
2023-01-21T17:15:38.883Z,103223.25
2023-01-21T17:17:41.317Z,103222.78
2023-01-21T17:19:44.229Z,103225.53
2023-01-21T17:21:51.393Z,103220.00
2023-01-21T17:23:58.744Z,103222.19
2023-01-21T17:26:08.851Z,103233.53
2023-01-21T17:28:17.278Z,103232.88
2023-01-21T17:30:26.506Z,103224.41
2023-01-21T17:32:33.265Z,103228.63
2023-01-21T17:34:38.050Z,103226.19
2023-01-21T17:36:41.093Z,103229.00
2023-01-21T17:38:46.443Z,103229.53
2023-01-21T17:40:54.973Z,103229.53
2023-01-21T17:42:58.886Z,103230.31
2023-01-21T17:45:05.442Z,103233.44
2023-01-21T17:47:23.788Z,103238.56
2023-01-21T17:49:26.752Z,103236.88
2023-01-21T17:51:30.723Z,103236.94
2023-01-21T17:53:38.187Z,103236.16
2023-01-21T17:55:41.074Z,103236.81
2023-01-21T17:57:43.544Z,103235.03
2023-01-21T17:59:45.969Z,103232.22
2023-01-21T18:01:48.273Z,103230.13
2023-01-21T18:03:50.641Z,103234.56
2023-01-21T18:05:53.678Z,103235.44
2023-01-21T18:07:55.915Z,103235.53
2023-01-21T18:10:02.949Z,103232.31
2023-01-21T18:12:05.703Z,103228.63
2023-01-21T18:14:14.282Z,103231.31
2023-01-21T18:16:16.656Z,103237.00
2023-01-21T18:18:22.354Z,103227.88
2023-01-21T18:20:26.805Z,103238.22
2023-01-21T18:22:32.913Z,103237.44
2023-01-21T18:24:35.811Z,103238.31
2023-01-21T18:26:38.585Z,103231.31
2023-01-21T18:28:40.774Z,103237.44
2023-01-21T18:30:43.150Z,103246.16
2023-01-21T18:32:46.435Z,103249.22
2023-01-21T18:34:48.700Z,103248.00
2023-01-21T18:36:51.072Z,103241.88
2023-01-21T18:38:54.594Z,103241.72
2023-01-21T18:40:57.619Z,103249.41
2023-01-21T18:42:59.970Z,103247.63
2023-01-21T18:45:02.298Z,103249.84
2023-01-21T18:47:12.166Z,103248.59
2023-01-21T18:49:18.352Z,103264.72
2023-01-21T18:51:20.819Z,103250.69
2023-01-21T18:53:23.189Z,103262.03
2023-01-21T18:55:29.492Z,103262.03
2023-01-21T18:57:32.041Z,103264.00
2023-01-21T18:59:34.988Z,103260.44
2023-01-21T19:01:37.436Z,103258.66
2023-01-21T19:03:39.866Z,103266.56
2023-01-21T19:05:44.973Z,103269.13
2023-01-21T19:07:47.719Z,103263.25
2023-01-21T19:09:51.462Z,103266.44
2023-01-21T19:11:53.841Z,103269.78
2023-01-21T19:13:56.186Z,103276.44
2023-01-21T19:16:00.087Z,103273.22
2023-01-21T19:18:02.905Z,103271.34
2023-01-21T19:20:06.097Z,103279.13
2023-01-21T19:22:13.356Z,103280.13
2023-01-21T19:24:15.580Z,103275.69
2023-01-21T19:26:18.207Z,103281.78
2023-01-21T19:28:21.969Z,103277.84
2023-01-21T19:30:28.196Z,103280.91
2023-01-21T19:32:30.770Z,103276.34
2023-01-21T19:34:33.128Z,103281.84
2023-01-21T19:36:35.881Z,103280.56
2023-01-21T19:38:44.000Z,103281.34
2023-01-21T19:40:47.275Z,103284.41
2023-01-21T19:42:50.272Z,103281.50
2023-01-21T19:44:52.698Z,103283.56
2023-01-21T19:46:58.652Z,103281.78
2023-01-21T19:49:08.987Z,103282.91
2023-01-21T19:51:13.165Z,103286.38
2023-01-21T19:53:17.813Z,103283.84
2023-01-21T19:55:23.962Z,103282.78
2023-01-21T19:57:30.707Z,103286.13
2023-01-21T19:59:35.083Z,103296.25
2023-01-21T20:01:37.538Z,103286.78
2023-01-21T20:03:54.786Z,103289.00
2023-01-21T20:06:04.104Z,103287.31
2023-01-21T20:08:07.066Z,103285.13
2023-01-21T20:10:13.442Z,103295.00
2023-01-21T20:12:15.623Z,103288.72
2023-01-21T20:14:17.900Z,103296.28
2023-01-21T20:16:23.285Z,103289.00
2023-01-21T20:18:28.358Z,103288.34
2023-01-21T20:20:33.193Z,103290.91
2023-01-21T20:22:35.383Z,103288.69
2023-01-21T20:24:37.799Z,103289.47
2023-01-21T20:26:40.343Z,103297.13
2023-01-21T20:28:47.873Z,103297.91
2023-01-21T20:30:51.775Z,103292.56
2023-01-21T20:32:54.143Z,103295.50
2023-01-21T20:34:56.522Z,103298.72
2023-01-21T20:36:59.872Z,103294.38
2023-01-21T20:39:02.366Z,103295.81
2023-01-21T20:41:06.114Z,103297.59
2023-01-21T20:43:08.635Z,103298.38
2023-01-21T20:45:14.016Z,103297.97
2023-01-21T20:47:32.564Z,103293.75
2023-01-21T20:49:41.067Z,103297.88
2023-01-21T20:51:43.547Z,103294.19
2023-01-21T20:53:46.249Z,103302.63
2023-01-21T20:55:50.759Z,103300.19
2023-01-21T20:57:53.249Z,103296.13
2023-01-21T20:59:55.996Z,103301.91
2023-01-21T21:01:59.256Z,103301.13
2023-01-21T21:04:01.678Z,103301.13
2023-01-21T21:06:11.136Z,103304.19
2023-01-21T21:08:19.231Z,103312.50
2023-01-21T21:10:26.727Z,103311.50
2023-01-21T21:12:29.221Z,103309.59
2023-01-21T21:14:31.370Z,103310.50
2023-01-21T21:16:34.549Z,103313.16
2023-01-21T21:18:36.782Z,103322.72
2023-01-21T21:20:40.039Z,103325.41
2023-01-21T21:22:42.345Z,103318.63
2023-01-21T21:24:44.545Z,103322.22
2023-01-21T21:26:46.711Z,103314.94
2023-01-21T21:28:54.999Z,103317.47
2023-01-21T21:30:57.426Z,103315.03
2023-01-21T21:33:01.194Z,103319.38
2023-01-21T21:35:03.360Z,103320.53
2023-01-21T21:37:05.546Z,103318.72
2023-01-21T21:39:07.940Z,103321.16
2023-01-21T21:41:25.207Z,103322.06
2023-01-21T21:43:30.923Z,103314.94
2023-01-21T21:45:33.627Z,103322.22
2023-01-21T21:47:39.891Z,103322.72
2023-01-21T21:49:42.424Z,103321.47
2023-01-21T21:51:45.852Z,103317.88
2023-01-21T21:53:48.296Z,103320.97
2023-01-21T21:55:50.768Z,103321.09
2023-01-21T21:57:52.993Z,103317.50
2023-01-21T21:59:55.447Z,103331.19
2023-01-21T22:02:00.878Z,103323.41
2023-01-21T22:04:04.444Z,103325.56
2023-01-21T22:06:08.238Z,103328.63
2023-01-21T22:08:11.785Z,103327.88
2023-01-21T22:10:14.321Z,103333.88
2023-01-21T22:12:16.520Z,103317.41
2023-01-21T22:14:18.963Z,103322.75
2023-01-21T22:16:24.110Z,103320.47
2023-01-21T22:18:28.181Z,103318.94
2023-01-21T22:20:30.602Z,103318.81
2023-01-21T22:22:32.703Z,103317.28
2023-01-21T22:24:36.009Z,103322.28
2023-01-21T22:26:38.889Z,103323.00
2023-01-21T22:28:42.902Z,103320.84
2023-01-21T22:30:45.319Z,103330.81
2023-01-21T22:32:47.776Z,103334.53
2023-01-21T22:34:50.749Z,103338.63
2023-01-21T22:36:53.202Z,103333.38
2023-01-21T22:38:56.186Z,103334.66
2023-01-21T22:40:58.502Z,103343.06
2023-01-21T22:43:01.107Z,103350.50
2023-01-21T22:45:05.551Z,103340.16
2023-01-21T22:47:08.077Z,103347.28
2023-01-21T22:49:11.371Z,103345.50
2023-01-21T22:51:15.961Z,103341.03
2023-01-21T22:53:18.292Z,103339.75
2023-01-21T22:55:20.567Z,103339.50
2023-01-21T22:57:23.105Z,103335.94
2023-01-21T22:59:25.314Z,103333.63
2023-01-21T23:01:34.054Z,103335.41
2023-01-21T23:03:37.639Z,103340.63
2023-01-21T23:05:39.994Z,103341.81
2023-01-21T23:07:42.360Z,103342.81
2023-01-21T23:09:44.668Z,103338.72
2023-01-21T23:11:47.436Z,103331.84
2023-01-21T23:13:50.106Z,103332.72
2023-01-21T23:15:52.410Z,103328.28
2023-01-21T23:17:54.909Z,103334.50
2023-01-21T23:19:57.064Z,103330.94
2023-01-21T23:21:59.214Z,103337.72
2023-01-21T23:24:01.636Z,103334.91
2023-01-21T23:26:07.053Z,103333.75
2023-01-21T23:28:09.706Z,103332.47
2023-01-21T23:30:14.066Z,103329.03
2023-01-21T23:32:16.342Z,103334.13
2023-01-21T23:34:20.291Z,103332.84
2023-01-21T23:36:22.917Z,103331.44
2023-01-21T23:38:25.108Z,103324.69
2023-01-21T23:40:27.304Z,103331.31
2023-01-21T23:42:49.477Z,103329.53
2023-01-21T23:44:51.813Z,103329.53
2023-01-21T23:46:54.245Z,103326.72
2023-01-21T23:48:56.513Z,103328.50
2023-01-21T23:51:04.167Z,103335.00